sensor_id;sensor_type;location;lat;lon;timestamp;P1;durP1;ratioP1;P2;durP2;ratioP2
11771;SDS011;12556;55.748;13.194;2022-07-31T00:01:49;9.63;;;6.10;;
11771;SDS011;12556;55.748;13.194;2022-07-31T00:04:19;12.33;;;6.50;;
11771;SDS011;12556;55.748;13.194;2022-07-31T00:06:48;8.07;;;6.27;;
11771;SDS011;12556;55.748;13.194;2022-07-31T00:09:15;7.80;;;6.43;;
11771;SDS011;12556;55.748;13.194;2022-07-31T00:11:41;6.27;;;4.73;;
11771;SDS011;12556;55.748;13.194;2022-07-31T00:14:08;8.47;;;5.40;;
11771;SDS011;12556;55.748;13.194;2022-07-31T00:16:35;10.63;;;5.93;;
11771;SDS011;12556;55.748;13.194;2022-07-31T00:19:04;11.07;;;5.63;;
11771;SDS011;12556;55.748;13.194;2022-07-31T00:21:31;5.77;;;5.13;;
11771;SDS011;12556;55.748;13.194;2022-07-31T00:23:58;5.10;;;4.57;;
11771;SDS011;12556;55.748;13.194;2022-07-31T00:26:24;4.97;;;4.00;;
11771;SDS011;12556;55.748;13.194;2022-07-31T00:28:51;5.47;;;4.33;;
11771;SDS011;12556;55.748;13.194;2022-07-31T00:31:18;5.23;;;4.10;;
11771;SDS011;12556;55.748;13.194;2022-07-31T00:33:45;9.00;;;4.30;;
11771;SDS011;12556;55.748;13.194;2022-07-31T00:36:14;4.37;;;3.93;;
11771;SDS011;12556;55.748;13.194;2022-07-31T00:38:40;4.13;;;3.73;;
11771;SDS011;12556;55.748;13.194;2022-07-31T00:41:07;5.30;;;4.00;;
11771;SDS011;12556;55.748;13.194;2022-07-31T00:43:35;5.47;;;4.10;;
11771;SDS011;12556;55.748;13.194;2022-07-31T00:46:02;5.90;;;4.80;;
11771;SDS011;12556;55.748;13.194;2022-07-31T00:48:29;9.53;;;4.70;;
11771;SDS011;12556;55.748;13.194;2022-07-31T00:50:56;5.40;;;4.40;;
11771;SDS011;12556;55.748;13.194;2022-07-31T00:53:24;9.07;;;4.23;;
11771;SDS011;12556;55.748;13.194;2022-07-31T00:55:51;4.10;;;3.70;;
11771;SDS011;12556;55.748;13.194;2022-07-31T00:58:18;5.83;;;4.37;;
11771;SDS011;12556;55.748;13.194;2022-07-31T01:00:45;13.53;;;4.73;;
11771;SDS011;12556;55.748;13.194;2022-07-31T01:03:12;7.73;;;4.27;;
11771;SDS011;12556;55.748;13.194;2022-07-31T01:05:40;6.87;;;4.63;;
11771;SDS011;12556;55.748;13.194;2022-07-31T01:08:07;4.53;;;3.37;;
11771;SDS011;12556;55.748;13.194;2022-07-31T01:10:37;6.03;;;3.77;;
11771;SDS011;12556;55.748;13.194;2022-07-31T01:13:12;10.53;;;3.50;;
11771;SDS011;12556;55.748;13.194;2022-07-31T01:15:45;6.47;;;3.13;;
11771;SDS011;12556;55.748;13.194;2022-07-31T01:18:13;9.23;;;3.33;;
11771;SDS011;12556;55.748;13.194;2022-07-31T01:20:42;9.53;;;3.23;;
11771;SDS011;12556;55.748;13.194;2022-07-31T01:23:14;4.77;;;3.20;;
11771;SDS011;12556;55.748;13.194;2022-07-31T01:25:55;3.17;;;2.87;;
11771;SDS011;12556;55.748;13.194;2022-07-31T01:28:40;9.10;;;3.13;;
11771;SDS011;12556;55.748;13.194;2022-07-31T01:31:23;4.27;;;2.90;;
11771;SDS011;12556;55.748;13.194;2022-07-31T01:33:54;4.17;;;2.37;;
11771;SDS011;12556;55.748;13.194;2022-07-31T01:36:28;5.83;;;2.70;;
11771;SDS011;12556;55.748;13.194;2022-07-31T01:38:59;3.30;;;2.27;;
11771;SDS011;12556;55.748;13.194;2022-07-31T01:41:27;2.30;;;1.90;;
11771;SDS011;12556;55.748;13.194;2022-07-31T01:44:00;6.23;;;2.50;;
11771;SDS011;12556;55.748;13.194;2022-07-31T01:46:29;4.63;;;2.23;;
11771;SDS011;12556;55.748;13.194;2022-07-31T01:49:00;3.97;;;1.73;;
11771;SDS011;12556;55.748;13.194;2022-07-31T01:51:28;7.43;;;2.43;;
11771;SDS011;12556;55.748;13.194;2022-07-31T01:53:57;6.97;;;2.73;;
11771;SDS011;12556;55.748;13.194;2022-07-31T01:56:27;11.47;;;2.70;;
11771;SDS011;12556;55.748;13.194;2022-07-31T01:58:58;4.83;;;2.63;;
11771;SDS011;12556;55.748;13.194;2022-07-31T02:01:27;5.93;;;2.80;;
11771;SDS011;12556;55.748;13.194;2022-07-31T02:03:57;10.73;;;2.60;;
11771;SDS011;12556;55.748;13.194;2022-07-31T02:06:24;6.10;;;2.83;;
11771;SDS011;12556;55.748;13.194;2022-07-31T02:08:52;3.80;;;2.13;;
11771;SDS011;12556;55.748;13.194;2022-07-31T02:11:21;6.83;;;2.30;;
11771;SDS011;12556;55.748;13.194;2022-07-31T02:13:49;6.03;;;3.20;;
11771;SDS011;12556;55.748;13.194;2022-07-31T02:16:19;7.20;;;2.37;;
11771;SDS011;12556;55.748;13.194;2022-07-31T02:18:47;8.50;;;2.83;;
11771;SDS011;12556;55.748;13.194;2022-07-31T02:21:16;8.93;;;3.00;;
11771;SDS011;12556;55.748;13.194;2022-07-31T02:23:43;5.70;;;2.57;;
11771;SDS011;12556;55.748;13.194;2022-07-31T02:26:10;5.13;;;2.80;;
11771;SDS011;12556;55.748;13.194;2022-07-31T02:28:39;9.63;;;3.07;;
11771;SDS011;12556;55.748;13.194;2022-07-31T02:31:08;10.03;;;2.30;;
11771;SDS011;12556;55.748;13.194;2022-07-31T02:33:38;5.47;;;2.57;;
11771;SDS011;12556;55.748;13.194;2022-07-31T02:36:07;14.03;;;2.83;;
11771;SDS011;12556;55.748;13.194;2022-07-31T02:38:36;8.63;;;2.37;;
11771;SDS011;12556;55.748;13.194;2022-07-31T02:41:04;10.10;;;2.70;;
11771;SDS011;12556;55.748;13.194;2022-07-31T02:43:32;9.20;;;2.47;;
11771;SDS011;12556;55.748;13.194;2022-07-31T02:46:02;7.27;;;2.50;;
11771;SDS011;12556;55.748;13.194;2022-07-31T02:48:29;5.07;;;2.30;;
11771;SDS011;12556;55.748;13.194;2022-07-31T02:50:59;3.93;;;2.07;;
11771;SDS011;12556;55.748;13.194;2022-07-31T02:53:26;7.10;;;2.57;;
11771;SDS011;12556;55.748;13.194;2022-07-31T02:55:55;2.90;;;2.20;;
11771;SDS011;12556;55.748;13.194;2022-07-31T02:58:22;6.17;;;2.23;;
11771;SDS011;12556;55.748;13.194;2022-07-31T03:00:56;9.10;;;2.60;;
11771;SDS011;12556;55.748;13.194;2022-07-31T03:03:25;6.33;;;2.40;;
11771;SDS011;12556;55.748;13.194;2022-07-31T03:05:52;7.60;;;2.10;;
11771;SDS011;12556;55.748;13.194;2022-07-31T03:08:20;3.87;;;2.27;;
11771;SDS011;12556;55.748;13.194;2022-07-31T03:10:48;5.03;;;2.60;;
11771;SDS011;12556;55.748;13.194;2022-07-31T03:13:15;5.50;;;2.33;;
11771;SDS011;12556;55.748;13.194;2022-07-31T03:15:43;9.90;;;2.53;;
11771;SDS011;12556;55.748;13.194;2022-07-31T03:18:12;14.33;;;2.97;;
11771;SDS011;12556;55.748;13.194;2022-07-31T03:20:40;6.07;;;2.40;;
11771;SDS011;12556;55.748;13.194;2022-07-31T03:23:08;7.20;;;2.63;;
11771;SDS011;12556;55.748;13.194;2022-07-31T03:25:38;8.37;;;2.63;;
11771;SDS011;12556;55.748;13.194;2022-07-31T03:28:06;7.77;;;2.70;;
11771;SDS011;12556;55.748;13.194;2022-07-31T03:30:33;4.30;;;3.13;;
11771;SDS011;12556;55.748;13.194;2022-07-31T03:33:01;6.10;;;2.93;;
11771;SDS011;12556;55.748;13.194;2022-07-31T03:35:27;5.60;;;2.73;;
11771;SDS011;12556;55.748;13.194;2022-07-31T03:37:55;9.03;;;2.93;;
11771;SDS011;12556;55.748;13.194;2022-07-31T03:40:22;10.50;;;3.13;;
11771;SDS011;12556;55.748;13.194;2022-07-31T03:42:51;5.07;;;2.83;;
11771;SDS011;12556;55.748;13.194;2022-07-31T03:45:18;5.70;;;2.80;;
11771;SDS011;12556;55.748;13.194;2022-07-31T03:47:46;7.87;;;2.93;;
11771;SDS011;12556;55.748;13.194;2022-07-31T03:50:14;5.40;;;3.07;;
11771;SDS011;12556;55.748;13.194;2022-07-31T03:52:42;4.33;;;2.87;;
11771;SDS011;12556;55.748;13.194;2022-07-31T03:55:10;4.80;;;2.73;;
11771;SDS011;12556;55.748;13.194;2022-07-31T03:57:37;2.90;;;2.60;;
11771;SDS011;12556;55.748;13.194;2022-07-31T04:00:07;3.93;;;2.63;;
11771;SDS011;12556;55.748;13.194;2022-07-31T04:02:35;4.97;;;2.93;;
11771;SDS011;12556;55.748;13.194;2022-07-31T04:05:02;4.17;;;2.77;;
11771;SDS011;12556;55.748;13.194;2022-07-31T04:07:29;3.83;;;2.13;;
11771;SDS011;12556;55.748;13.194;2022-07-31T04:09:56;5.77;;;2.67;;
11771;SDS011;12556;55.748;13.194;2022-07-31T04:12:23;6.40;;;2.90;;
11771;SDS011;12556;55.748;13.194;2022-07-31T04:14:50;5.43;;;3.03;;
11771;SDS011;12556;55.748;13.194;2022-07-31T04:17:19;5.17;;;2.70;;
11771;SDS011;12556;55.748;13.194;2022-07-31T04:19:46;3.67;;;2.37;;
11771;SDS011;12556;55.748;13.194;2022-07-31T04:22:13;3.13;;;2.13;;
11771;SDS011;12556;55.748;13.194;2022-07-31T04:24:40;4.30;;;2.30;;
11771;SDS011;12556;55.748;13.194;2022-07-31T04:27:07;4.10;;;2.40;;
11771;SDS011;12556;55.748;13.194;2022-07-31T04:29:34;3.90;;;2.50;;
11771;SDS011;12556;55.748;13.194;2022-07-31T04:32:01;2.70;;;2.33;;
11771;SDS011;12556;55.748;13.194;2022-07-31T04:34:30;6.53;;;2.47;;
11771;SDS011;12556;55.748;13.194;2022-07-31T04:36:57;3.17;;;2.00;;
11771;SDS011;12556;55.748;13.194;2022-07-31T04:39:24;3.40;;;2.17;;
11771;SDS011;12556;55.748;13.194;2022-07-31T04:41:51;2.67;;;2.30;;
11771;SDS011;12556;55.748;13.194;2022-07-31T04:44:18;4.07;;;2.10;;
11771;SDS011;12556;55.748;13.194;2022-07-31T04:46:45;3.57;;;2.27;;
11771;SDS011;12556;55.748;13.194;2022-07-31T04:49:12;2.03;;;1.73;;
11771;SDS011;12556;55.748;13.194;2022-07-31T04:51:41;5.13;;;2.30;;
11771;SDS011;12556;55.748;13.194;2022-07-31T04:54:08;2.17;;;1.87;;
11771;SDS011;12556;55.748;13.194;2022-07-31T04:56:35;4.43;;;2.20;;
11771;SDS011;12556;55.748;13.194;2022-07-31T04:59:06;3.30;;;2.00;;
11771;SDS011;12556;55.748;13.194;2022-07-31T05:01:35;5.00;;;1.87;;
11771;SDS011;12556;55.748;13.194;2022-07-31T05:04:03;3.00;;;2.20;;
11771;SDS011;12556;55.748;13.194;2022-07-31T05:06:34;4.50;;;2.03;;
11771;SDS011;12556;55.748;13.194;2022-07-31T05:09:04;3.50;;;2.30;;
11771;SDS011;12556;55.748;13.194;2022-07-31T05:11:32;3.57;;;2.00;;
11771;SDS011;12556;55.748;13.194;2022-07-31T05:14:00;4.30;;;2.60;;
11771;SDS011;12556;55.748;13.194;2022-07-31T05:16:29;3.17;;;2.30;;
11771;SDS011;12556;55.748;13.194;2022-07-31T05:18:56;3.50;;;2.00;;
11771;SDS011;12556;55.748;13.194;2022-07-31T05:21:24;3.10;;;2.30;;
11771;SDS011;12556;55.748;13.194;2022-07-31T05:23:52;3.53;;;2.50;;
11771;SDS011;12556;55.748;13.194;2022-07-31T05:26:21;3.80;;;2.60;;
11771;SDS011;12556;55.748;13.194;2022-07-31T05:28:49;3.73;;;2.50;;
11771;SDS011;12556;55.748;13.194;2022-07-31T05:31:18;6.30;;;2.83;;
11771;SDS011;12556;55.748;13.194;2022-07-31T05:33:46;6.07;;;2.70;;
11771;SDS011;12556;55.748;13.194;2022-07-31T05:36:14;4.07;;;2.80;;
11771;SDS011;12556;55.748;13.194;2022-07-31T05:38:42;3.90;;;2.80;;
11771;SDS011;12556;55.748;13.194;2022-07-31T05:41:10;4.50;;;2.50;;
11771;SDS011;12556;55.748;13.194;2022-07-31T05:43:38;3.30;;;3.00;;
11771;SDS011;12556;55.748;13.194;2022-07-31T05:46:05;3.90;;;2.77;;
11771;SDS011;12556;55.748;13.194;2022-07-31T05:48:32;3.33;;;2.60;;
11771;SDS011;12556;55.748;13.194;2022-07-31T05:50:59;2.70;;;2.50;;
11771;SDS011;12556;55.748;13.194;2022-07-31T05:53:27;3.37;;;2.20;;
11771;SDS011;12556;55.748;13.194;2022-07-31T05:55:54;2.27;;;2.10;;
11771;SDS011;12556;55.748;13.194;2022-07-31T05:58:21;2.47;;;2.20;;
11771;SDS011;12556;55.748;13.194;2022-07-31T06:00:49;2.73;;;1.87;;
11771;SDS011;12556;55.748;13.194;2022-07-31T06:03:21;3.03;;;2.27;;
11771;SDS011;12556;55.748;13.194;2022-07-31T06:05:49;2.23;;;1.93;;
11771;SDS011;12556;55.748;13.194;2022-07-31T06:08:16;2.57;;;2.20;;
11771;SDS011;12556;55.748;13.194;2022-07-31T06:10:43;3.90;;;1.93;;
11771;SDS011;12556;55.748;13.194;2022-07-31T06:13:11;3.63;;;1.77;;
11771;SDS011;12556;55.748;13.194;2022-07-31T06:15:39;2.47;;;1.83;;
11771;SDS011;12556;55.748;13.194;2022-07-31T06:18:08;1.90;;;1.80;;
11771;SDS011;12556;55.748;13.194;2022-07-31T06:20:35;1.83;;;1.73;;
11771;SDS011;12556;55.748;13.194;2022-07-31T06:23:02;2.70;;;1.70;;
11771;SDS011;12556;55.748;13.194;2022-07-31T06:25:29;1.57;;;1.47;;
11771;SDS011;12556;55.748;13.194;2022-07-31T06:27:56;1.70;;;1.50;;
11771;SDS011;12556;55.748;13.194;2022-07-31T06:30:23;1.70;;;1.40;;
11771;SDS011;12556;55.748;13.194;2022-07-31T06:32:50;1.60;;;1.50;;
11771;SDS011;12556;55.748;13.194;2022-07-31T06:35:18;2.00;;;1.60;;
11771;SDS011;12556;55.748;13.194;2022-07-31T06:37:45;1.27;;;1.27;;
11771;SDS011;12556;55.748;13.194;2022-07-31T06:40:12;1.30;;;1.20;;
11771;SDS011;12556;55.748;13.194;2022-07-31T06:42:39;1.10;;;1.00;;
11771;SDS011;12556;55.748;13.194;2022-07-31T06:45:08;1.30;;;1.20;;
11771;SDS011;12556;55.748;13.194;2022-07-31T06:47:36;2.80;;;1.10;;
11771;SDS011;12556;55.748;13.194;2022-07-31T06:50:03;1.63;;;0.83;;
11771;SDS011;12556;55.748;13.194;2022-07-31T06:52:32;1.20;;;1.10;;
11771;SDS011;12556;55.748;13.194;2022-07-31T06:54:59;1.00;;;1.00;;
11771;SDS011;12556;55.748;13.194;2022-07-31T06:57:26;1.00;;;0.90;;
11771;SDS011;12556;55.748;13.194;2022-07-31T06:59:53;0.93;;;0.93;;
11771;SDS011;12556;55.748;13.194;2022-07-31T07:02:20;1.17;;;1.17;;
11771;SDS011;12556;55.748;13.194;2022-07-31T07:04:47;1.47;;;1.33;;
11771;SDS011;12556;55.748;13.194;2022-07-31T07:07:14;1.10;;;1.00;;
11771;SDS011;12556;55.748;13.194;2022-07-31T07:09:42;2.10;;;1.03;;
11771;SDS011;12556;55.748;13.194;2022-07-31T07:12:09;0.93;;;0.93;;
11771;SDS011;12556;55.748;13.194;2022-07-31T07:14:36;0.93;;;0.93;;
11771;SDS011;12556;55.748;13.194;2022-07-31T07:17:04;1.73;;;1.10;;
11771;SDS011;12556;55.748;13.194;2022-07-31T07:19:31;1.83;;;1.03;;
11771;SDS011;12556;55.748;13.194;2022-07-31T07:21:58;1.20;;;0.87;;
11771;SDS011;12556;55.748;13.194;2022-07-31T07:24:25;1.03;;;0.93;;
11771;SDS011;12556;55.748;13.194;2022-07-31T07:26:53;1.00;;;0.90;;
11771;SDS011;12556;55.748;13.194;2022-07-31T07:29:20;1.20;;;0.90;;
11771;SDS011;12556;55.748;13.194;2022-07-31T07:31:48;0.85;;;0.85;;
11771;SDS011;12556;55.748;13.194;2022-07-31T07:34:15;0.90;;;0.90;;
11771;SDS011;12556;55.748;13.194;2022-07-31T07:36:42;1.30;;;0.88;;
11771;SDS011;12556;55.748;13.194;2022-07-31T07:39:09;1.00;;;0.90;;
11771;SDS011;12556;55.748;13.194;2022-07-31T07:41:36;0.77;;;0.77;;
11771;SDS011;12556;55.748;13.194;2022-07-31T07:44:05;1.15;;;1.00;;
11771;SDS011;12556;55.748;13.194;2022-07-31T07:46:32;1.27;;;0.90;;
11771;SDS011;12556;55.748;13.194;2022-07-31T07:49:00;1.63;;;1.10;;
11771;SDS011;12556;55.748;13.194;2022-07-31T07:51:27;0.75;;;0.73;;
11771;SDS011;12556;55.748;13.194;2022-07-31T07:53:54;0.80;;;0.80;;
11771;SDS011;12556;55.748;13.194;2022-07-31T07:56:21;1.65;;;0.80;;
11771;SDS011;12556;55.748;13.194;2022-07-31T07:58:48;0.93;;;0.90;;
11771;SDS011;12556;55.748;13.194;2022-07-31T08:01:16;1.95;;;0.90;;
11771;SDS011;12556;55.748;13.194;2022-07-31T08:03:44;1.00;;;0.90;;
11771;SDS011;12556;55.748;13.194;2022-07-31T08:06:11;0.77;;;0.77;;
11771;SDS011;12556;55.748;13.194;2022-07-31T08:08:38;2.40;;;0.93;;
11771;SDS011;12556;55.748;13.194;2022-07-31T08:11:05;1.90;;;0.90;;
11771;SDS011;12556;55.748;13.194;2022-07-31T08:13:33;1.20;;;1.10;;
11771;SDS011;12556;55.748;13.194;2022-07-31T08:16:00;1.23;;;0.70;;
11771;SDS011;12556;55.748;13.194;2022-07-31T08:18:28;2.38;;;0.80;;
11771;SDS011;12556;55.748;13.194;2022-07-31T08:20:55;1.10;;;1.00;;
11771;SDS011;12556;55.748;13.194;2022-07-31T08:23:22;1.55;;;0.80;;
11771;SDS011;12556;55.748;13.194;2022-07-31T08:25:50;1.98;;;1.13;;
11771;SDS011;12556;55.748;13.194;2022-07-31T08:28:17;1.02;;;0.88;;
11771;SDS011;12556;55.748;13.194;2022-07-31T08:30:44;1.13;;;1.02;;
11771;SDS011;12556;55.748;13.194;2022-07-31T08:33:11;1.55;;;0.98;;
11771;SDS011;12556;55.748;13.194;2022-07-31T08:35:39;1.00;;;0.80;;
11771;SDS011;12556;55.748;13.194;2022-07-31T08:38:06;1.58;;;0.63;;
11771;SDS011;12556;55.748;13.194;2022-07-31T08:40:33;1.00;;;0.57;;
11771;SDS011;12556;55.748;13.194;2022-07-31T08:43:03;1.25;;;0.80;;
11771;SDS011;12556;55.748;13.194;2022-07-31T08:45:30;0.80;;;0.80;;
11771;SDS011;12556;55.748;13.194;2022-07-31T08:47:57;1.15;;;0.80;;
11771;SDS011;12556;55.748;13.194;2022-07-31T08:50:25;2.05;;;0.90;;
11771;SDS011;12556;55.748;13.194;2022-07-31T08:52:55;0.60;;;0.55;;
11771;SDS011;12556;55.748;13.194;2022-07-31T08:55:23;1.58;;;0.68;;
11771;SDS011;12556;55.748;13.194;2022-07-31T08:57:51;1.48;;;0.93;;
11771;SDS011;12556;55.748;13.194;2022-07-31T09:00:18;1.55;;;0.90;;
11771;SDS011;12556;55.748;13.194;2022-07-31T09:02:47;1.25;;;0.63;;
11771;SDS011;12556;55.748;13.194;2022-07-31T09:05:14;1.80;;;1.23;;
11771;SDS011;12556;55.748;13.194;2022-07-31T09:07:41;1.27;;;0.90;;
11771;SDS011;12556;55.748;13.194;2022-07-31T09:10:19;1.00;;;0.90;;
11771;SDS011;12556;55.748;13.194;2022-07-31T09:12:47;1.10;;;0.68;;
11771;SDS011;12556;55.748;13.194;2022-07-31T09:15:21;2.03;;;0.73;;
11771;SDS011;12556;55.748;13.194;2022-07-31T09:17:50;1.05;;;0.90;;
11771;SDS011;12556;55.748;13.194;2022-07-31T09:20:18;0.75;;;0.75;;
11771;SDS011;12556;55.748;13.194;2022-07-31T09:22:46;2.90;;;1.15;;
11771;SDS011;12556;55.748;13.194;2022-07-31T09:25:19;1.25;;;0.80;;
11771;SDS011;12556;55.748;13.194;2022-07-31T09:27:46;1.13;;;0.70;;
11771;SDS011;12556;55.748;13.194;2022-07-31T09:30:15;0.70;;;0.70;;
11771;SDS011;12556;55.748;13.194;2022-07-31T09:32:43;0.82;;;0.70;;
11771;SDS011;12556;55.748;13.194;2022-07-31T09:35:11;1.08;;;0.90;;
11771;SDS011;12556;55.748;13.194;2022-07-31T09:37:39;0.82;;;0.80;;
11771;SDS011;12556;55.748;13.194;2022-07-31T09:40:07;0.98;;;0.98;;
11771;SDS011;12556;55.748;13.194;2022-07-31T09:42:39;0.77;;;0.77;;
11771;SDS011;12556;55.748;13.194;2022-07-31T09:45:16;0.70;;;0.70;;
11771;SDS011;12556;55.748;13.194;2022-07-31T09:47:44;1.00;;;0.63;;
11771;SDS011;12556;55.748;13.194;2022-07-31T09:50:11;0.63;;;0.63;;
11771;SDS011;12556;55.748;13.194;2022-07-31T09:52:38;2.47;;;0.88;;
11771;SDS011;12556;55.748;13.194;2022-07-31T09:55:06;1.00;;;0.80;;
11771;SDS011;12556;55.748;13.194;2022-07-31T09:57:35;1.40;;;0.90;;
11771;SDS011;12556;55.748;13.194;2022-07-31T10:00:06;0.82;;;0.80;;
11771;SDS011;12556;55.748;13.194;2022-07-31T10:02:34;1.40;;;0.65;;
11771;SDS011;12556;55.748;13.194;2022-07-31T10:05:04;1.13;;;0.93;;
11771;SDS011;12556;55.748;13.194;2022-07-31T10:07:32;0.80;;;0.80;;
11771;SDS011;12556;55.748;13.194;2022-07-31T10:10:02;1.90;;;0.70;;
11771;SDS011;12556;55.748;13.194;2022-07-31T10:12:30;0.70;;;0.70;;
11771;SDS011;12556;55.748;13.194;2022-07-31T10:15:02;0.80;;;0.80;;
11771;SDS011;12556;55.748;13.194;2022-07-31T10:17:33;0.80;;;0.80;;
11771;SDS011;12556;55.748;13.194;2022-07-31T10:20:04;2.22;;;0.60;;
11771;SDS011;12556;55.748;13.194;2022-07-31T10:22:33;1.05;;;1.00;;
11771;SDS011;12556;55.748;13.194;2022-07-31T10:25:04;1.60;;;0.95;;
11771;SDS011;12556;55.748;13.194;2022-07-31T10:27:36;0.80;;;0.80;;
11771;SDS011;12556;55.748;13.194;2022-07-31T10:30:05;2.33;;;1.00;;
11771;SDS011;12556;55.748;13.194;2022-07-31T10:32:34;1.13;;;0.90;;
11771;SDS011;12556;55.748;13.194;2022-07-31T10:35:02;1.73;;;0.93;;
11771;SDS011;12556;55.748;13.194;2022-07-31T10:37:33;1.27;;;1.17;;
11771;SDS011;12556;55.748;13.194;2022-07-31T10:40:07;1.60;;;0.60;;
11771;SDS011;12556;55.748;13.194;2022-07-31T10:42:43;0.68;;;0.63;;
11771;SDS011;12556;55.748;13.194;2022-07-31T10:45:15;2.30;;;0.98;;
11771;SDS011;12556;55.748;13.194;2022-07-31T10:47:53;2.25;;;0.90;;
11771;SDS011;12556;55.748;13.194;2022-07-31T10:50:21;0.70;;;0.70;;
11771;SDS011;12556;55.748;13.194;2022-07-31T10:52:49;0.70;;;0.70;;
11771;SDS011;12556;55.748;13.194;2022-07-31T10:55:16;1.23;;;0.90;;
11771;SDS011;12556;55.748;13.194;2022-07-31T10:57:46;1.15;;;0.80;;
11771;SDS011;12556;55.748;13.194;2022-07-31T11:00:14;1.20;;;0.70;;
11771;SDS011;12556;55.748;13.194;2022-07-31T11:02:42;0.95;;;0.85;;
11771;SDS011;12556;55.748;13.194;2022-07-31T11:05:11;1.58;;;1.10;;
11771;SDS011;12556;55.748;13.194;2022-07-31T11:07:40;0.80;;;0.80;;
11771;SDS011;12556;55.748;13.194;2022-07-31T11:10:18;0.90;;;0.80;;
11771;SDS011;12556;55.748;13.194;2022-07-31T11:12:57;0.60;;;0.60;;
11771;SDS011;12556;55.748;13.194;2022-07-31T11:15:24;0.90;;;0.70;;
11771;SDS011;12556;55.748;13.194;2022-07-31T11:17:51;1.08;;;0.73;;
11771;SDS011;12556;55.748;13.194;2022-07-31T11:20:24;2.75;;;0.82;;
11771;SDS011;12556;55.748;13.194;2022-07-31T11:22:55;1.00;;;0.90;;
11771;SDS011;12556;55.748;13.194;2022-07-31T11:25:25;1.38;;;0.80;;
11771;SDS011;12556;55.748;13.194;2022-07-31T11:27:54;1.58;;;0.68;;
11771;SDS011;12556;55.748;13.194;2022-07-31T11:30:22;1.95;;;1.15;;
11771;SDS011;12556;55.748;13.194;2022-07-31T11:32:49;4.25;;;0.80;;
11771;SDS011;12556;55.748;13.194;2022-07-31T11:35:26;1.70;;;0.80;;
11771;SDS011;12556;55.748;13.194;2022-07-31T11:37:55;1.23;;;0.70;;
11771;SDS011;12556;55.748;13.194;2022-07-31T11:40:22;1.13;;;0.85;;
11771;SDS011;12556;55.748;13.194;2022-07-31T11:42:49;1.10;;;0.80;;
11771;SDS011;12556;55.748;13.194;2022-07-31T11:45:16;0.52;;;0.52;;
11771;SDS011;12556;55.748;13.194;2022-07-31T11:47:44;0.80;;;0.70;;
11771;SDS011;12556;55.748;13.194;2022-07-31T11:50:12;2.88;;;1.60;;
11771;SDS011;12556;55.748;13.194;2022-07-31T11:52:41;1.30;;;0.77;;
11771;SDS011;12556;55.748;13.194;2022-07-31T11:55:09;0.63;;;0.60;;
11771;SDS011;12556;55.748;13.194;2022-07-31T11:57:37;0.68;;;0.60;;
11771;SDS011;12556;55.748;13.194;2022-07-31T12:00:06;0.60;;;0.60;;
11771;SDS011;12556;55.748;13.194;2022-07-31T12:02:41;1.55;;;0.70;;
11771;SDS011;12556;55.748;13.194;2022-07-31T12:05:10;1.00;;;0.80;;
11771;SDS011;12556;55.748;13.194;2022-07-31T12:07:38;0.70;;;0.70;;
11771;SDS011;12556;55.748;13.194;2022-07-31T12:10:09;0.80;;;0.80;;
11771;SDS011;12556;55.748;13.194;2022-07-31T12:12:37;1.70;;;0.90;;
11771;SDS011;12556;55.748;13.194;2022-07-31T12:15:13;2.22;;;0.70;;
11771;SDS011;12556;55.748;13.194;2022-07-31T12:17:42;0.70;;;0.70;;
11771;SDS011;12556;55.748;13.194;2022-07-31T12:20:09;0.95;;;0.88;;
11771;SDS011;12556;55.748;13.194;2022-07-31T12:22:38;0.82;;;0.80;;
11771;SDS011;12556;55.748;13.194;2022-07-31T12:25:07;0.80;;;0.80;;
11771;SDS011;12556;55.748;13.194;2022-07-31T12:27:36;1.35;;;0.60;;
11771;SDS011;12556;55.748;13.194;2022-07-31T12:30:11;2.15;;;0.77;;
11771;SDS011;12556;55.748;13.194;2022-07-31T12:32:42;2.13;;;0.95;;
11771;SDS011;12556;55.748;13.194;2022-07-31T12:35:09;1.15;;;0.70;;
11771;SDS011;12556;55.748;13.194;2022-07-31T12:37:46;0.80;;;0.80;;
11771;SDS011;12556;55.748;13.194;2022-07-31T12:40:23;0.65;;;0.65;;
11771;SDS011;12556;55.748;13.194;2022-07-31T12:42:52;0.85;;;0.85;;
11771;SDS011;12556;55.748;13.194;2022-07-31T12:45:32;1.00;;;0.85;;
11771;SDS011;12556;55.748;13.194;2022-07-31T12:48:01;1.92;;;1.20;;
11771;SDS011;12556;55.748;13.194;2022-07-31T12:50:29;0.80;;;0.73;;
11771;SDS011;12556;55.748;13.194;2022-07-31T12:52:59;3.05;;;0.63;;
11771;SDS011;12556;55.748;13.194;2022-07-31T12:55:31;0.60;;;0.60;;
11771;SDS011;12556;55.748;13.194;2022-07-31T12:57:58;1.65;;;1.00;;
11771;SDS011;12556;55.748;13.194;2022-07-31T13:00:26;0.80;;;0.80;;
11771;SDS011;12556;55.748;13.194;2022-07-31T13:02:54;0.70;;;0.70;;
11771;SDS011;12556;55.748;13.194;2022-07-31T13:05:22;5.68;;;0.85;;
11771;SDS011;12556;55.748;13.194;2022-07-31T13:07:50;1.15;;;0.63;;
11771;SDS011;12556;55.748;13.194;2022-07-31T13:10:17;0.77;;;0.77;;
11771;SDS011;12556;55.748;13.194;2022-07-31T13:12:46;1.60;;;1.00;;
11771;SDS011;12556;55.748;13.194;2022-07-31T13:15:14;0.80;;;0.70;;
11771;SDS011;12556;55.748;13.194;2022-07-31T13:17:42;2.05;;;0.50;;
11771;SDS011;12556;55.748;13.194;2022-07-31T13:20:10;0.77;;;0.73;;
11771;SDS011;12556;55.748;13.194;2022-07-31T13:22:37;1.00;;;0.75;;
11771;SDS011;12556;55.748;13.194;2022-07-31T13:25:04;0.70;;;0.70;;
11771;SDS011;12556;55.748;13.194;2022-07-31T13:27:31;0.55;;;0.55;;
11771;SDS011;12556;55.748;13.194;2022-07-31T13:30:00;3.90;;;0.70;;
11771;SDS011;12556;55.748;13.194;2022-07-31T13:32:27;1.27;;;0.80;;
11771;SDS011;12556;55.748;13.194;2022-07-31T13:34:55;0.47;;;0.47;;
11771;SDS011;12556;55.748;13.194;2022-07-31T13:37:22;1.05;;;0.70;;
11771;SDS011;12556;55.748;13.194;2022-07-31T13:39:49;1.52;;;0.70;;
11771;SDS011;12556;55.748;13.194;2022-07-31T13:42:17;0.60;;;0.60;;
11771;SDS011;12556;55.748;13.194;2022-07-31T13:44:44;1.25;;;0.88;;
11771;SDS011;12556;55.748;13.194;2022-07-31T13:47:14;2.08;;;0.82;;
11771;SDS011;12556;55.748;13.194;2022-07-31T13:49:40;0.70;;;0.70;;
11771;SDS011;12556;55.748;13.194;2022-07-31T13:52:07;0.75;;;0.70;;
11771;SDS011;12556;55.748;13.194;2022-07-31T13:54:34;0.73;;;0.73;;
11771;SDS011;12556;55.748;13.194;2022-07-31T13:57:01;3.60;;;0.75;;
11771;SDS011;12556;55.748;13.194;2022-07-31T13:59:30;0.65;;;0.65;;
11771;SDS011;12556;55.748;13.194;2022-07-31T14:01:58;0.70;;;0.70;;
11771;SDS011;12556;55.748;13.194;2022-07-31T14:04:26;2.42;;;0.80;;
11771;SDS011;12556;55.748;13.194;2022-07-31T14:06:54;1.85;;;0.80;;
11771;SDS011;12556;55.748;13.194;2022-07-31T14:09:21;2.63;;;0.70;;
11771;SDS011;12556;55.748;13.194;2022-07-31T14:11:48;1.25;;;0.80;;
11771;SDS011;12556;55.748;13.194;2022-07-31T14:14:14;2.33;;;0.68;;
11771;SDS011;12556;55.748;13.194;2022-07-31T14:16:41;0.75;;;0.70;;
11771;SDS011;12556;55.748;13.194;2022-07-31T14:19:08;1.75;;;0.70;;
11771;SDS011;12556;55.748;13.194;2022-07-31T14:21:36;0.90;;;0.80;;
11771;SDS011;12556;55.748;13.194;2022-07-31T14:24:04;1.13;;;0.80;;
11771;SDS011;12556;55.748;13.194;2022-07-31T14:26:31;0.68;;;0.68;;
11771;SDS011;12556;55.748;13.194;2022-07-31T14:28:58;0.80;;;0.60;;
11771;SDS011;12556;55.748;13.194;2022-07-31T14:31:25;1.25;;;0.80;;
11771;SDS011;12556;55.748;13.194;2022-07-31T14:33:52;1.25;;;0.80;;
11771;SDS011;12556;55.748;13.194;2022-07-31T14:36:20;0.70;;;0.70;;
11771;SDS011;12556;55.748;13.194;2022-07-31T14:38:48;1.65;;;0.65;;
11771;SDS011;12556;55.748;13.194;2022-07-31T14:41:15;0.63;;;0.63;;